sensor_id;sensor_type;location;lat;lon;timestamp;P1;durP1;ratioP1;P2;durP2;ratioP2
65162;SDS011;51751;55.714;37.436;2023-08-12T00:00:58;13.95;;;8.18;;
65162;SDS011;51751;55.714;37.436;2023-08-12T00:03:24;14.82;;;8.60;;
65162;SDS011;51751;55.714;37.436;2023-08-12T00:05:51;16.00;;;8.55;;
65162;SDS011;51751;55.714;37.436;2023-08-12T00:08:21;19.13;;;9.50;;
65162;SDS011;51751;55.714;37.436;2023-08-12T00:10:47;14.80;;;8.95;;
65162;SDS011;51751;55.714;37.436;2023-08-12T00:13:13;11.75;;;8.73;;
65162;SDS011;51751;55.714;37.436;2023-08-12T00:15:43;12.88;;;9.43;;
65162;SDS011;51751;55.714;37.436;2023-08-12T00:18:10;12.63;;;8.18;;
65162;SDS011;51751;55.714;37.436;2023-08-12T00:20:35;14.07;;;8.60;;
65162;SDS011;51751;55.714;37.436;2023-08-12T00:23:05;10.88;;;8.00;;
65162;SDS011;51751;55.714;37.436;2023-08-12T00:25:31;14.27;;;8.23;;
65162;SDS011;51751;55.714;37.436;2023-08-12T00:27:57;10.65;;;7.63;;
65162;SDS011;51751;55.714;37.436;2023-08-12T00:30:23;18.05;;;8.13;;
65162;SDS011;51751;55.714;37.436;2023-08-12T00:32:52;10.38;;;7.40;;
65162;SDS011;51751;55.714;37.436;2023-08-12T00:35:18;10.60;;;7.38;;
65162;SDS011;51751;55.714;37.436;2023-08-12T00:37:45;14.18;;;7.95;;
65162;SDS011;51751;55.714;37.436;2023-08-12T00:40:13;10.52;;;7.75;;
65162;SDS011;51751;55.714;37.436;2023-08-12T00:42:39;11.15;;;8.40;;
65162;SDS011;51751;55.714;37.436;2023-08-12T00:45:09;10.68;;;7.60;;
65162;SDS011;51751;55.714;37.436;2023-08-12T00:47:36;14.43;;;7.85;;
65162;SDS011;51751;55.714;37.436;2023-08-12T00:50:05;15.02;;;8.00;;
65162;SDS011;51751;55.714;37.436;2023-08-12T00:52:36;15.23;;;7.35;;
65162;SDS011;51751;55.714;37.436;2023-08-12T00:55:02;10.10;;;7.70;;
65162;SDS011;51751;55.714;37.436;2023-08-12T00:57:34;14.70;;;8.52;;
65162;SDS011;51751;55.714;37.436;2023-08-12T01:00:01;14.05;;;7.57;;
65162;SDS011;51751;55.714;37.436;2023-08-12T01:02:30;11.55;;;7.50;;
65162;SDS011;51751;55.714;37.436;2023-08-12T01:04:56;13.68;;;7.70;;
65162;SDS011;51751;55.714;37.436;2023-08-12T01:07:22;11.02;;;8.10;;
65162;SDS011;51751;55.714;37.436;2023-08-12T01:09:57;11.75;;;7.85;;
65162;SDS011;51751;55.714;37.436;2023-08-12T01:12:26;14.77;;;8.45;;
65162;SDS011;51751;55.714;37.436;2023-08-12T01:14:56;10.90;;;7.82;;
65162;SDS011;51751;55.714;37.436;2023-08-12T01:17:30;9.57;;;7.00;;
65162;SDS011;51751;55.714;37.436;2023-08-12T01:19:57;12.00;;;8.00;;
65162;SDS011;51751;55.714;37.436;2023-08-12T01:22:25;15.23;;;8.18;;
65162;SDS011;51751;55.714;37.436;2023-08-12T01:24:52;12.60;;;8.13;;
65162;SDS011;51751;55.714;37.436;2023-08-12T01:27:18;10.30;;;7.35;;
65162;SDS011;51751;55.714;37.436;2023-08-12T01:29:46;9.85;;;8.20;;
65162;SDS011;51751;55.714;37.436;2023-08-12T01:32:23;10.85;;;7.43;;
65162;SDS011;51751;55.714;37.436;2023-08-12T01:37:58;13.65;;;8.65;;
65162;SDS011;51751;55.714;37.436;2023-08-12T01:40:25;15.05;;;8.63;;
65162;SDS011;51751;55.714;37.436;2023-08-12T01:42:53;9.80;;;8.15;;
65162;SDS011;51751;55.714;37.436;2023-08-12T01:45:22;13.68;;;7.95;;
65162;SDS011;51751;55.714;37.436;2023-08-12T01:47:49;11.63;;;8.40;;
65162;SDS011;51751;55.714;37.436;2023-08-12T01:50:17;11.82;;;8.30;;
65162;SDS011;51751;55.714;37.436;2023-08-12T01:52:44;9.82;;;7.93;;
65162;SDS011;51751;55.714;37.436;2023-08-12T01:55:10;12.40;;;8.23;;
65162;SDS011;51751;55.714;37.436;2023-08-12T01:57:36;11.10;;;8.30;;
65162;SDS011;51751;55.714;37.436;2023-08-12T02:00:04;12.50;;;8.00;;
65162;SDS011;51751;55.714;37.436;2023-08-12T02:02:43;12.35;;;8.48;;
65162;SDS011;51751;55.714;37.436;2023-08-12T02:05:12;15.13;;;8.30;;
65162;SDS011;51751;55.714;37.436;2023-08-12T02:07:38;14.80;;;7.88;;
65162;SDS011;51751;55.714;37.436;2023-08-12T02:10:04;11.02;;;8.40;;
65162;SDS011;51751;55.714;37.436;2023-08-12T02:12:32;12.70;;;8.90;;
65162;SDS011;51751;55.714;37.436;2023-08-12T02:14:59;12.52;;;8.52;;
65162;SDS011;51751;55.714;37.436;2023-08-12T02:17:32;11.52;;;8.43;;
65162;SDS011;51751;55.714;37.436;2023-08-12T02:19:59;11.30;;;7.85;;
65162;SDS011;51751;55.714;37.436;2023-08-12T02:22:25;20.63;;;8.77;;
65162;SDS011;51751;55.714;37.436;2023-08-12T02:24:54;17.40;;;8.85;;
65162;SDS011;51751;55.714;37.436;2023-08-12T02:27:26;15.98;;;8.80;;
65162;SDS011;51751;55.714;37.436;2023-08-12T02:29:52;16.13;;;8.50;;
65162;SDS011;51751;55.714;37.436;2023-08-12T02:32:18;11.50;;;7.97;;
65162;SDS011;51751;55.714;37.436;2023-08-12T02:34:45;10.55;;;7.82;;
65162;SDS011;51751;55.714;37.436;2023-08-12T02:37:11;13.50;;;8.00;;
65162;SDS011;51751;55.714;37.436;2023-08-12T02:39:38;15.43;;;8.00;;
65162;SDS011;51751;55.714;37.436;2023-08-12T02:42:04;11.93;;;8.85;;
65162;SDS011;51751;55.714;37.436;2023-08-12T02:44:31;14.15;;;7.97;;
65162;SDS011;51751;55.714;37.436;2023-08-12T02:46:57;13.82;;;8.18;;
65162;SDS011;51751;55.714;37.436;2023-08-12T02:49:23;11.18;;;7.93;;
65162;SDS011;51751;55.714;37.436;2023-08-12T02:51:48;12.93;;;8.15;;
65162;SDS011;51751;55.714;37.436;2023-08-12T02:54:14;15.13;;;8.45;;
65162;SDS011;51751;55.714;37.436;2023-08-12T02:56:40;10.68;;;8.18;;
65162;SDS011;51751;55.714;37.436;2023-08-12T02:59:25;17.73;;;8.32;;
65162;SDS011;51751;55.714;37.436;2023-08-12T03:01:52;11.30;;;7.95;;
65162;SDS011;51751;55.714;37.436;2023-08-12T03:04:18;10.80;;;8.07;;
65162;SDS011;51751;55.714;37.436;2023-08-12T03:06:44;15.35;;;8.50;;
65162;SDS011;51751;55.714;37.436;2023-08-12T03:09:10;12.82;;;8.45;;
65162;SDS011;51751;55.714;37.436;2023-08-12T03:11:36;14.63;;;8.57;;
65162;SDS011;51751;55.714;37.436;2023-08-12T03:14:05;12.02;;;8.65;;
65162;SDS011;51751;55.714;37.436;2023-08-12T03:16:31;17.42;;;9.93;;
65162;SDS011;51751;55.714;37.436;2023-08-12T03:18:56;13.45;;;7.90;;
65162;SDS011;51751;55.714;37.436;2023-08-12T03:21:23;13.20;;;9.00;;
65162;SDS011;51751;55.714;37.436;2023-08-12T03:23:50;19.58;;;8.55;;
65162;SDS011;51751;55.714;37.436;2023-08-12T03:26:17;13.15;;;8.32;;
65162;SDS011;51751;55.714;37.436;2023-08-12T03:28:43;17.10;;;7.85;;
65162;SDS011;51751;55.714;37.436;2023-08-12T03:31:13;17.55;;;8.25;;
65162;SDS011;51751;55.714;37.436;2023-08-12T03:33:39;10.50;;;7.95;;
65162;SDS011;51751;55.714;37.436;2023-08-12T03:36:05;11.98;;;7.88;;
65162;SDS011;51751;55.714;37.436;2023-08-12T03:38:34;11.23;;;7.50;;
65162;SDS011;51751;55.714;37.436;2023-08-12T03:41:02;13.77;;;8.40;;
65162;SDS011;51751;55.714;37.436;2023-08-12T03:43:30;13.13;;;8.40;;
65162;SDS011;51751;55.714;37.436;2023-08-12T03:45:59;13.27;;;7.85;;
65162;SDS011;51751;55.714;37.436;2023-08-12T03:48:26;12.23;;;7.75;;
65162;SDS011;51751;55.714;37.436;2023-08-12T03:50:52;9.70;;;7.68;;
65162;SDS011;51751;55.714;37.436;2023-08-12T03:53:18;12.15;;;7.93;;
65162;SDS011;51751;55.714;37.436;2023-08-12T03:55:45;16.35;;;8.65;;
65162;SDS011;51751;55.714;37.436;2023-08-12T03:58:14;16.77;;;8.25;;
65162;SDS011;51751;55.714;37.436;2023-08-12T04:00:43;19.20;;;7.78;;
65162;SDS011;51751;55.714;37.436;2023-08-12T04:03:11;12.73;;;7.55;;
65162;SDS011;51751;55.714;37.436;2023-08-12T04:05:46;10.75;;;7.85;;
65162;SDS011;51751;55.714;37.436;2023-08-12T04:08:14;14.15;;;8.05;;
65162;SDS011;51751;55.714;37.436;2023-08-12T04:10:44;14.02;;;7.95;;
65162;SDS011;51751;55.714;37.436;2023-08-12T04:13:13;19.77;;;7.85;;
65162;SDS011;51751;55.714;37.436;2023-08-12T04:15:40;15.02;;;7.72;;
65162;SDS011;51751;55.714;37.436;2023-08-12T04:18:07;11.40;;;7.50;;
65162;SDS011;51751;55.714;37.436;2023-08-12T04:20:34;14.25;;;7.53;;
65162;SDS011;51751;55.714;37.436;2023-08-12T04:23:02;11.80;;;8.25;;
65162;SDS011;51751;55.714;37.436;2023-08-12T04:25:29;16.17;;;7.50;;
65162;SDS011;51751;55.714;37.436;2023-08-12T04:27:56;13.35;;;7.70;;
65162;SDS011;51751;55.714;37.436;2023-08-12T04:30:23;12.95;;;7.78;;
65162;SDS011;51751;55.714;37.436;2023-08-12T04:32:49;16.77;;;7.78;;
65162;SDS011;51751;55.714;37.436;2023-08-12T04:35:16;10.75;;;7.82;;
65162;SDS011;51751;55.714;37.436;2023-08-12T04:37:42;15.75;;;7.93;;
65162;SDS011;51751;55.714;37.436;2023-08-12T04:40:08;15.88;;;7.20;;
65162;SDS011;51751;55.714;37.436;2023-08-12T04:42:42;13.25;;;8.15;;
65162;SDS011;51751;55.714;37.436;2023-08-12T04:45:08;13.05;;;7.43;;
65162;SDS011;51751;55.714;37.436;2023-08-12T04:47:35;10.52;;;7.50;;
65162;SDS011;51751;55.714;37.436;2023-08-12T04:50:02;14.70;;;7.82;;
65162;SDS011;51751;55.714;37.436;2023-08-12T04:52:29;12.50;;;7.40;;
65162;SDS011;51751;55.714;37.436;2023-08-12T04:54:55;10.32;;;7.53;;
65162;SDS011;51751;55.714;37.436;2023-08-12T04:57:25;10.05;;;7.70;;
65162;SDS011;51751;55.714;37.436;2023-08-12T04:59:53;12.93;;;8.20;;
65162;SDS011;51751;55.714;37.436;2023-08-12T05:02:20;13.20;;;6.97;;
65162;SDS011;51751;55.714;37.436;2023-08-12T05:04:50;12.60;;;7.75;;
65162;SDS011;51751;55.714;37.436;2023-08-12T05:07:17;12.82;;;7.40;;
65162;SDS011;51751;55.714;37.436;2023-08-12T05:09:44;10.02;;;7.07;;
65162;SDS011;51751;55.714;37.436;2023-08-12T05:12:12;10.50;;;6.63;;
65162;SDS011;51751;55.714;37.436;2023-08-12T05:14:41;12.32;;;7.03;;
65162;SDS011;51751;55.714;37.436;2023-08-12T05:17:09;9.68;;;6.40;;
65162;SDS011;51751;55.714;37.436;2023-08-12T05:19:37;14.63;;;6.70;;
65162;SDS011;51751;55.714;37.436;2023-08-12T05:22:03;13.98;;;6.72;;
65162;SDS011;51751;55.714;37.436;2023-08-12T05:24:29;10.13;;;6.43;;
65162;SDS011;51751;55.714;37.436;2023-08-12T05:26:55;16.60;;;7.22;;
65162;SDS011;51751;55.714;37.436;2023-08-12T05:29:21;14.05;;;6.30;;
65162;SDS011;51751;55.714;37.436;2023-08-12T05:31:47;9.02;;;6.63;;
65162;SDS011;51751;55.714;37.436;2023-08-12T05:34:14;10.07;;;6.60;;
65162;SDS011;51751;55.714;37.436;2023-08-12T05:36:48;8.23;;;6.43;;
65162;SDS011;51751;55.714;37.436;2023-08-12T05:39:17;9.55;;;5.90;;
65162;SDS011;51751;55.714;37.436;2023-08-12T05:41:45;10.80;;;6.55;;
65162;SDS011;51751;55.714;37.436;2023-08-12T05:44:11;10.40;;;6.72;;
65162;SDS011;51751;55.714;37.436;2023-08-12T05:46:37;11.50;;;7.10;;
65162;SDS011;51751;55.714;37.436;2023-08-12T05:49:03;10.68;;;7.40;;
65162;SDS011;51751;55.714;37.436;2023-08-12T05:51:29;12.57;;;6.82;;
65162;SDS011;51751;55.714;37.436;2023-08-12T05:53:55;14.35;;;7.00;;
65162;SDS011;51751;55.714;37.436;2023-08-12T05:56:21;11.63;;;6.93;;
65162;SDS011;51751;55.714;37.436;2023-08-12T05:58:46;10.80;;;7.07;;
65162;SDS011;51751;55.714;37.436;2023-08-12T06:01:17;12.85;;;6.82;;
65162;SDS011;51751;55.714;37.436;2023-08-12T06:03:43;11.48;;;7.00;;
65162;SDS011;51751;55.714;37.436;2023-08-12T06:06:12;13.25;;;6.75;;
65162;SDS011;51751;55.714;37.436;2023-08-12T06:08:38;12.95;;;6.88;;
65162;SDS011;51751;55.714;37.436;2023-08-12T06:11:09;11.85;;;6.47;;
65162;SDS011;51751;55.714;37.436;2023-08-12T06:13:35;9.57;;;7.00;;
65162;SDS011;51751;55.714;37.436;2023-08-12T06:16:01;12.80;;;6.97;;
65162;SDS011;51751;55.714;37.436;2023-08-12T06:18:27;9.63;;;6.30;;
65162;SDS011;51751;55.714;37.436;2023-08-12T06:20:56;10.65;;;6.30;;
65162;SDS011;51751;55.714;37.436;2023-08-12T06:23:25;11.18;;;6.47;;
65162;SDS011;51751;55.714;37.436;2023-08-12T06:25:50;11.50;;;6.65;;
65162;SDS011;51751;55.714;37.436;2023-08-12T06:28:35;10.98;;;6.45;;
65162;SDS011;51751;55.714;37.436;2023-08-12T06:31:04;12.73;;;6.40;;
65162;SDS011;51751;55.714;37.436;2023-08-12T06:33:30;11.57;;;6.35;;
65162;SDS011;51751;55.714;37.436;2023-08-12T06:35:56;10.00;;;6.13;;
65162;SDS011;51751;55.714;37.436;2023-08-12T06:38:22;10.68;;;6.18;;
65162;SDS011;51751;55.714;37.436;2023-08-12T06:40:54;12.57;;;6.90;;
65162;SDS011;51751;55.714;37.436;2023-08-12T06:43:25;13.77;;;6.30;;
65162;SDS011;51751;55.714;37.436;2023-08-12T06:45:51;11.73;;;6.30;;
65162;SDS011;51751;55.714;37.436;2023-08-12T06:48:17;10.90;;;5.88;;
65162;SDS011;51751;55.714;37.436;2023-08-12T06:50:52;13.15;;;6.38;;
65162;SDS011;51751;55.714;37.436;2023-08-12T06:53:19;11.20;;;6.10;;
65162;SDS011;51751;55.714;37.436;2023-08-12T06:55:45;12.30;;;6.15;;
65162;SDS011;51751;55.714;37.436;2023-08-12T06:58:12;11.38;;;5.95;;
65162;SDS011;51751;55.714;37.436;2023-08-12T07:00:44;9.88;;;5.47;;
65162;SDS011;51751;55.714;37.436;2023-08-12T07:03:10;13.60;;;5.95;;
65162;SDS011;51751;55.714;37.436;2023-08-12T07:05:38;13.43;;;6.10;;
65162;SDS011;51751;55.714;37.436;2023-08-12T07:08:04;10.45;;;6.22;;
65162;SDS011;51751;55.714;37.436;2023-08-12T07:10:50;13.52;;;5.97;;
65162;SDS011;51751;55.714;37.436;2023-08-12T07:13:16;13.50;;;5.90;;
65162;SDS011;51751;55.714;37.436;2023-08-12T07:15:48;8.75;;;5.75;;
65162;SDS011;51751;55.714;37.436;2023-08-12T07:18:14;10.30;;;6.00;;
65162;SDS011;51751;55.714;37.436;2023-08-12T07:20:44;9.63;;;5.80;;
65162;SDS011;51751;55.714;37.436;2023-08-12T07:23:10;9.32;;;5.65;;
65162;SDS011;51751;55.714;37.436;2023-08-12T07:25:37;9.70;;;5.75;;
65162;SDS011;51751;55.714;37.436;2023-08-12T07:28:03;12.93;;;5.95;;
65162;SDS011;51751;55.714;37.436;2023-08-12T07:30:33;8.65;;;5.72;;
65162;SDS011;51751;55.714;37.436;2023-08-12T07:33:06;12.95;;;6.50;;
65162;SDS011;51751;55.714;37.436;2023-08-12T07:35:38;9.57;;;5.80;;
65162;SDS011;51751;55.714;37.436;2023-08-12T07:38:04;11.68;;;6.60;;
65162;SDS011;51751;55.714;37.436;2023-08-12T07:40:33;8.63;;;6.35;;
65162;SDS011;51751;55.714;37.436;2023-08-12T07:42:59;12.52;;;6.32;;
65162;SDS011;51751;55.714;37.436;2023-08-12T07:45:25;11.43;;;6.70;;
65162;SDS011;51751;55.714;37.436;2023-08-12T07:47:54;10.18;;;6.18;;
65162;SDS011;51751;55.714;37.436;2023-08-12T07:50:22;9.85;;;6.07;;
65162;SDS011;51751;55.714;37.436;2023-08-12T07:52:48;13.65;;;5.97;;
65162;SDS011;51751;55.714;37.436;2023-08-12T07:55:14;13.65;;;6.75;;
65162;SDS011;51751;55.714;37.436;2023-08-12T07:57:41;14.13;;;6.88;;
65162;SDS011;51751;55.714;37.436;2023-08-12T08:00:10;15.40;;;6.93;;
65162;SDS011;51751;55.714;37.436;2023-08-12T08:02:37;16.45;;;6.15;;
65162;SDS011;51751;55.714;37.436;2023-08-12T08:05:04;10.40;;;6.28;;
65162;SDS011;51751;55.714;37.436;2023-08-12T08:07:30;14.07;;;6.38;;
65162;SDS011;51751;55.714;37.436;2023-08-12T08:09:57;14.40;;;6.22;;
65162;SDS011;51751;55.714;37.436;2023-08-12T08:12:23;13.43;;;6.60;;
65162;SDS011;51751;55.714;37.436;2023-08-12T08:14:49;13.43;;;6.70;;
65162;SDS011;51751;55.714;37.436;2023-08-12T08:17:15;18.77;;;7.07;;
65162;SDS011;51751;55.714;37.436;2023-08-12T08:19:41;10.88;;;6.28;;
65162;SDS011;51751;55.714;37.436;2023-08-12T08:22:07;13.93;;;6.38;;
65162;SDS011;51751;55.714;37.436;2023-08-12T08:24:32;13.85;;;6.90;;
65162;SDS011;51751;55.714;37.436;2023-08-12T08:26:58;12.98;;;7.35;;
65162;SDS011;51751;55.714;37.436;2023-08-12T08:29:24;11.23;;;7.65;;
65162;SDS011;51751;55.714;37.436;2023-08-12T08:31:51;10.15;;;7.00;;
65162;SDS011;51751;55.714;37.436;2023-08-12T08:34:17;10.75;;;7.80;;
65162;SDS011;51751;55.714;37.436;2023-08-12T08:36:43;15.80;;;7.28;;
65162;SDS011;51751;55.714;37.436;2023-08-12T08:39:12;16.90;;;7.50;;
65162;SDS011;51751;55.714;37.436;2023-08-12T08:41:38;18.48;;;7.63;;
65162;SDS011;51751;55.714;37.436;2023-08-12T08:44:07;17.25;;;8.18;;
65162;SDS011;51751;55.714;37.436;2023-08-12T08:46:36;12.93;;;7.20;;
65162;SDS011;51751;55.714;37.436;2023-08-12T08:49:02;15.75;;;8.13;;
65162;SDS011;51751;55.714;37.436;2023-08-12T08:51:30;13.88;;;7.88;;
65162;SDS011;51751;55.714;37.436;2023-08-12T08:53:57;14.02;;;7.30;;
65162;SDS011;51751;55.714;37.436;2023-08-12T08:56:24;11.48;;;7.75;;
65162;SDS011;51751;55.714;37.436;2023-08-12T08:58:50;12.13;;;7.22;;
65162;SDS011;51751;55.714;37.436;2023-08-12T09:01:17;17.30;;;7.35;;
65162;SDS011;51751;55.714;37.436;2023-08-12T09:03:45;15.77;;;8.18;;
65162;SDS011;51751;55.714;37.436;2023-08-12T09:06:12;9.77;;;7.50;;
65162;SDS011;51751;55.714;37.436;2023-08-12T09:08:38;15.13;;;8.07;;
65162;SDS011;51751;55.714;37.436;2023-08-12T09:11:06;11.38;;;7.60;;
65162;SDS011;51751;55.714;37.436;2023-08-12T09:13:33;11.00;;;7.20;;
65162;SDS011;51751;55.714;37.436;2023-08-12T09:15:59;12.05;;;7.65;;
65162;SDS011;51751;55.714;37.436;2023-08-12T09:18:25;12.38;;;7.55;;
65162;SDS011;51751;55.714;37.436;2023-08-12T09:20:51;14.50;;;7.32;;
65162;SDS011;51751;55.714;37.436;2023-08-12T09:23:17;11.50;;;7.43;;
65162;SDS011;51751;55.714;37.436;2023-08-12T09:25:44;10.57;;;7.03;;
65162;SDS011;51751;55.714;37.436;2023-08-12T09:28:12;21.55;;;7.40;;
65162;SDS011;51751;55.714;37.436;2023-08-12T09:30:39;15.63;;;7.22;;
65162;SDS011;51751;55.714;37.436;2023-08-12T09:33:05;13.50;;;7.47;;
65162;SDS011;51751;55.714;37.436;2023-08-12T09:35:33;16.45;;;7.18;;
65162;SDS011;51751;55.714;37.436;2023-08-12T09:38:01;12.57;;;7.72;;
65162;SDS011;51751;55.714;37.436;2023-08-12T09:40:29;14.80;;;7.20;;
65162;SDS011;51751;55.714;37.436;2023-08-12T09:42:56;14.23;;;8.40;;
65162;SDS011;51751;55.714;37.436;2023-08-12T09:45:25;15.80;;;7.60;;
65162;SDS011;51751;55.714;37.436;2023-08-12T09:47:54;18.63;;;7.65;;
65162;SDS011;51751;55.714;37.436;2023-08-12T09:50:23;13.60;;;7.45;;
65162;SDS011;51751;55.714;37.436;2023-08-12T09:52:53;12.02;;;7.70;;
65162;SDS011;51751;55.714;37.436;2023-08-12T09:55:22;13.70;;;7.97;;
65162;SDS011;51751;55.714;37.436;2023-08-12T09:57:50;13.77;;;8.07;;
65162;SDS011;51751;55.714;37.436;2023-08-12T10:00:21;17.05;;;7.78;;
65162;SDS011;51751;55.714;37.436;2023-08-12T10:02:48;11.65;;;7.90;;
65162;SDS011;51751;55.714;37.436;2023-08-12T10:05:30;14.73;;;7.55;;
65162;SDS011;51751;55.714;37.436;2023-08-12T10:07:57;14.07;;;7.72;;
65162;SDS011;51751;55.714;37.436;2023-08-12T10:10:24;11.48;;;8.18;;
65162;SDS011;51751;55.714;37.436;2023-08-12T10:12:51;10.70;;;7.85;;
65162;SDS011;51751;55.714;37.436;2023-08-12T10:15:17;14.18;;;7.93;;
65162;SDS011;51751;55.714;37.436;2023-08-12T10:17:47;12.73;;;8.07;;
65162;SDS011;51751;55.714;37.436;2023-08-12T10:20:16;10.70;;;7.88;;
65162;SDS011;51751;55.714;37.436;2023-08-12T10:23:04;12.88;;;7.90;;
65162;SDS011;51751;55.714;37.436;2023-08-12T10:25:32;12.75;;;8.05;;
65162;SDS011;51751;55.714;37.436;2023-08-12T10:28:01;13.35;;;8.65;;
65162;SDS011;51751;55.714;37.436;2023-08-12T10:30:30;12.10;;;7.63;;
65162;SDS011;51751;55.714;37.436;2023-08-12T10:32:57;11.82;;;7.75;;
65162;SDS011;51751;55.714;37.436;2023-08-12T10:35:57;12.82;;;8.18;;
65162;SDS011;51751;55.714;37.436;2023-08-12T10:38:17;12.98;;;8.25;;
65162;SDS011;51751;55.714;37.436;2023-08-12T10:40:43;14.77;;;8.35;;
65162;SDS011;51751;55.714;37.436;2023-08-12T10:43:22;18.38;;;9.05;;
65162;SDS011;51751;55.714;37.436;2023-08-12T10:45:54;11.85;;;8.13;;
65162;SDS011;51751;55.714;37.436;2023-08-12T10:48:24;13.77;;;8.10;;
65162;SDS011;51751;55.714;37.436;2023-08-12T10:50:54;13.70;;;8.88;;
65162;SDS011;51751;55.714;37.436;2023-08-12T10:53:28;13.27;;;8.30;;
65162;SDS011;51751;55.714;37.436;2023-08-12T10:55:59;10.18;;;8.60;;
65162;SDS011;51751;55.714;37.436;2023-08-12T10:58:33;12.93;;;8.55;;
65162;SDS011;51751;55.714;37.436;2023-08-12T11:01:21;12.43;;;8.85;;
65162;SDS011;51751;55.714;37.436;2023-08-12T11:03:48;15.13;;;8.93;;
65162;SDS011;51751;55.714;37.436;2023-08-12T11:06:14;13.18;;;7.90;;
65162;SDS011;51751;55.714;37.436;2023-08-12T11:08:47;16.05;;;8.60;;
65162;SDS011;51751;55.714;37.436;2023-08-12T11:11:22;15.15;;;8.52;;
65162;SDS011;51751;55.714;37.436;2023-08-12T11:13:57;15.23;;;8.45;;
65162;SDS011;51751;55.714;37.436;2023-08-12T11:16:36;10.95;;;8.45;;
65162;SDS011;51751;55.714;37.436;2023-08-12T11:19:03;14.00;;;8.38;;
65162;SDS011;51751;55.714;37.436;2023-08-12T11:21:29;18.48;;;9.00;;
65162;SDS011;51751;55.714;37.436;2023-08-12T11:23:55;14.52;;;8.70;;
65162;SDS011;51751;55.714;37.436;2023-08-12T11:26:23;19.17;;;8.60;;
65162;SDS011;51751;55.714;37.436;2023-08-12T11:28:49;12.85;;;9.25;;
65162;SDS011;51751;55.714;37.436;2023-08-12T11:31:16;12.55;;;8.63;;
65162;SDS011;51751;55.714;37.436;2023-08-12T11:33:43;13.25;;;9.05;;
65162;SDS011;51751;55.714;37.436;2023-08-12T11:36:11;15.25;;;8.52;;
65162;SDS011;51751;55.714;37.436;2023-08-12T11:38:41;10.68;;;8.38;;
65162;SDS011;51751;55.714;37.436;2023-08-12T11:41:07;13.63;;;9.48;;
65162;SDS011;51751;55.714;37.436;2023-08-12T11:43:36;15.32;;;7.88;;
65162;SDS011;51751;55.714;37.436;2023-08-12T11:46:02;15.63;;;8.60;;
65162;SDS011;51751;55.714;37.436;2023-08-12T11:48:28;12.38;;;8.10;;
65162;SDS011;51751;55.714;37.436;2023-08-12T11:50:53;16.50;;;8.75;;
65162;SDS011;51751;55.714;37.436;2023-08-12T11:53:20;12.38;;;8.05;;
65162;SDS011;51751;55.714;37.436;2023-08-12T11:55:46;9.80;;;8.10;;
65162;SDS011;51751;55.714;37.436;2023-08-12T11:58:13;16.35;;;8.45;;
65162;SDS011;51751;55.714;37.436;2023-08-12T12:00:46;11.52;;;8.07;;
65162;SDS011;51751;55.714;37.436;2023-08-12T12:03:12;14.60;;;7.78;;
65162;SDS011;51751;55.714;37.436;2023-08-12T12:05:41;11.60;;;8.95;;
65162;SDS011;51751;55.714;37.436;2023-08-12T12:08:07;12.10;;;8.48;;
65162;SDS011;51751;55.714;37.436;2023-08-12T12:10:35;11.38;;;8.60;;
65162;SDS011;51751;55.714;37.436;2023-08-12T12:13:04;14.73;;;9.23;;
65162;SDS011;51751;55.714;37.436;2023-08-12T12:15:30;10.38;;;8.05;;
65162;SDS011;51751;55.714;37.436;2023-08-12T12:17:57;12.63;;;8.73;;
65162;SDS011;51751;55.714;37.436;2023-08-12T12:20:23;12.63;;;9.00;;
65162;SDS011;51751;55.714;37.436;2023-08-12T12:22:51;12.02;;;8.57;;
65162;SDS011;51751;55.714;37.436;2023-08-12T12:25:17;13.57;;;8.57;;
65162;SDS011;51751;55.714;37.436;2023-08-12T12:27:47;15.65;;;8.88;;
65162;SDS011;51751;55.714;37.436;2023-08-12T12:30:21;14.40;;;7.95;;
65162;SDS011;51751;55.714;37.436;2023-08-12T12:32:47;13.00;;;8.23;;
65162;SDS011;51751;55.714;37.436;2023-08-12T12:35:13;15.85;;;8.18;;
65162;SDS011;51751;55.714;37.436;2023-08-12T12:37:39;10.13;;;7.20;;
65162;SDS011;51751;55.714;37.436;2023-08-12T12:40:05;15.80;;;7.32;;
65162;SDS011;51751;55.714;37.436;2023-08-12T12:42:35;10.73;;;7.03;;
65162;SDS011;51751;55.714;37.436;2023-08-12T12:45:04;9.80;;;7.15;;
65162;SDS011;51751;55.714;37.436;2023-08-12T12:47:33;8.95;;;6.90;;
65162;SDS011;51751;55.714;37.436;2023-08-12T12:50:04;12.90;;;7.28;;
65162;SDS011;51751;55.714;37.436;2023-08-12T12:52:30;13.15;;;7.53;;
65162;SDS011;51751;55.714;37.436;2023-08-12T12:54:56;12.02;;;7.38;;
65162;SDS011;51751;55.714;37.436;2023-08-12T12:57:23;9.82;;;7.80;;
65162;SDS011;51751;55.714;37.436;2023-08-12T12:59:48;11.63;;;7.05;;
65162;SDS011;51751;55.714;37.436;2023-08-12T13:02:14;11.80;;;7.60;;
65162;SDS011;51751;55.714;37.436;2023-08-12T13:04:43;12.45;;;7.70;;
65162;SDS011;51751;55.714;37.436;2023-08-12T13:07:10;13.27;;;7.40;;
65162;SDS011;51751;55.714;37.436;2023-08-12T13:09:41;9.55;;;7.40;;
65162;SDS011;51751;55.714;37.436;2023-08-12T13:12:07;10.98;;;7.57;;
65162;SDS011;51751;55.714;37.436;2023-08-12T13:14:35;13.82;;;7.95;;
65162;SDS011;51751;55.714;37.436;2023-08-12T13:17:01;11.80;;;7.32;;
65162;SDS011;51751;55.714;37.436;2023-08-12T13:19:30;14.95;;;7.57;;
65162;SDS011;51751;55.714;37.436;2023-08-12T13:21:55;13.00;;;7.60;;
65162;SDS011;51751;55.714;37.436;2023-08-12T13:24:21;9.80;;;6.95;;
65162;SDS011;51751;55.714;37.436;2023-08-12T13:26:47;11.43;;;6.80;;
65162;SDS011;51751;55.714;37.436;2023-08-12T13:29:13;9.98;;;6.80;;
65162;SDS011;51751;55.714;37.436;2023-08-12T13:31:39;9.88;;;6.85;;
65162;SDS011;51751;55.714;37.436;2023-08-12T13:34:08;10.95;;;6.50;;
65162;SDS011;51751;55.714;37.436;2023-08-12T13:36:34;11.20;;;6.88;;
65162;SDS011;51751;55.714;37.436;2023-08-12T13:39:04;10.73;;;6.53;;
65162;SDS011;51751;55.714;37.436;2023-08-12T13:41:33;7.57;;;6.60;;
65162;SDS011;51751;55.714;37.436;2023-08-12T13:43:59;11.25;;;7.43;;
65162;SDS011;51751;55.714;37.436;2023-08-12T13:46:25;12.52;;;6.97;;
65162;SDS011;51751;55.714;37.436;2023-08-12T13:48:52;11.68;;;6.88;;
65162;SDS011;51751;55.714;37.436;2023-08-12T13:51:18;13.00;;;6.70;;
65162;SDS011;51751;55.714;37.436;2023-08-12T13:53:53;10.17;;;7.13;;
65162;SDS011;51751;55.714;37.436;2023-08-12T13:56:19;13.75;;;6.90;;
65162;SDS011;51751;55.714;37.436;2023-08-12T13:58:45;9.70;;;7.03;;
65162;SDS011;51751;55.714;37.436;2023-08-12T14:01:11;11.63;;;7.43;;
65162;SDS011;51751;55.714;37.436;2023-08-12T14:03:37;9.88;;;6.70;;
65162;SDS011;51751;55.714;37.436;2023-08-12T14:06:03;10.82;;;7.30;;
65162;SDS011;51751;55.714;37.436;2023-08-12T14:13:30;12.05;;;7.38;;
65162;SDS011;51751;55.714;37.436;2023-08-12T14:15:56;11.10;;;7.30;;
65162;SDS011;51751;55.714;37.436;2023-08-12T14:18:22;12.75;;;7.88;;
65162;SDS011;51751;55.714;37.436;2023-08-12T14:20:48;13.82;;;7.72;;
65162;SDS011;51751;55.714;37.436;2023-08-12T14:23:14;17.02;;;8.32;;
65162;SDS011;51751;55.714;37.436;2023-08-12T14:25:40;13.40;;;8.88;;
65162;SDS011;51751;55.714;37.436;2023-08-12T14:28:06;11.98;;;8.73;;
65162;SDS011;51751;55.714;37.436;2023-08-12T14:30:32;11.48;;;7.93;;
65162;SDS011;51751;55.714;37.436;2023-08-12T14:32:58;13.77;;;8.63;;
65162;SDS011;51751;55.714;37.436;2023-08-12T14:35:24;14.38;;;8.13;;